sensor_id;sensor_type;location;lat;lon;timestamp;temperature;humidity
44886;DHT22;36669;51.428;21.162;2023-11-19T00:00:11;0.30;99.90
44886;DHT22;36669;51.428;21.162;2023-11-19T00:02:40;0.30;99.90
44886;DHT22;36669;51.428;21.162;2023-11-19T00:05:08;0.30;99.90
44886;DHT22;36669;51.428;21.162;2023-11-19T00:07:37;0.20;99.90
44886;DHT22;36669;51.428;21.162;2023-11-19T00:10:14;0.20;99.90
44886;DHT22;36669;51.428;21.162;2023-11-19T00:12:44;0.20;99.90
44886;DHT22;36669;51.428;21.162;2023-11-19T00:15:10;0.20;99.90
44886;DHT22;36669;51.428;21.162;2023-11-19T00:17:45;0.20;99.90
44886;DHT22;36669;51.428;21.162;2023-11-19T00:20:13;0.20;99.90
44886;DHT22;36669;51.428;21.162;2023-11-19T00:22:41;0.20;99.90
44886;DHT22;36669;51.428;21.162;2023-11-19T00:25:09;0.30;99.90
44886;DHT22;36669;51.428;21.162;2023-11-19T00:27:35;0.20;99.90
44886;DHT22;36669;51.428;21.162;2023-11-19T00:30:02;0.20;99.90
44886;DHT22;36669;51.428;21.162;2023-11-19T00:32:32;0.20;99.90
44886;DHT22;36669;51.428;21.162;2023-11-19T00:35:00;0.20;99.90
44886;DHT22;36669;51.428;21.162;2023-11-19T00:37:25;0.20;99.90
44886;DHT22;36669;51.428;21.162;2023-11-19T00:39:52;0.20;99.90
44886;DHT22;36669;51.428;21.162;2023-11-19T00:42:19;0.20;99.90
44886;DHT22;36669;51.428;21.162;2023-11-19T00:44:46;0.10;99.90
44886;DHT22;36669;51.428;21.162;2023-11-19T00:47:13;0.10;99.90
44886;DHT22;36669;51.428;21.162;2023-11-19T00:49:40;0.10;99.90
44886;DHT22;36669;51.428;21.162;2023-11-19T00:52:08;0.20;99.90
44886;DHT22;36669;51.428;21.162;2023-11-19T00:54:33;0.20;99.90
44886;DHT22;36669;51.428;21.162;2023-11-19T00:57:01;0.20;99.90
44886;DHT22;36669;51.428;21.162;2023-11-19T00:59:28;0.20;99.90
44886;DHT22;36669;51.428;21.162;2023-11-19T01:01:55;0.20;99.90
44886;DHT22;36669;51.428;21.162;2023-11-19T01:04:22;0.20;99.90
44886;DHT22;36669;51.428;21.162;2023-11-19T01:06:54;0.30;99.90
44886;DHT22;36669;51.428;21.162;2023-11-19T01:09:20;0.30;99.90
44886;DHT22;36669;51.428;21.162;2023-11-19T01:11:47;0.30;99.90
44886;DHT22;36669;51.428;21.162;2023-11-19T01:14:14;0.30;99.90
44886;DHT22;36669;51.428;21.162;2023-11-19T01:16:40;0.30;99.90
44886;DHT22;36669;51.428;21.162;2023-11-19T01:19:06;0.30;99.90
44886;DHT22;36669;51.428;21.162;2023-11-19T01:21:34;0.20;99.90
44886;DHT22;36669;51.428;21.162;2023-11-19T01:24:01;0.30;99.90
44886;DHT22;36669;51.428;21.162;2023-11-19T01:26:29;0.30;99.90
44886;DHT22;36669;51.428;21.162;2023-11-19T01:28:56;0.30;99.90
44886;DHT22;36669;51.428;21.162;2023-11-19T01:31:21;0.30;99.90
44886;DHT22;36669;51.428;21.162;2023-11-19T01:33:48;0.30;99.90
44886;DHT22;36669;51.428;21.162;2023-11-19T01:36:17;0.30;99.90
44886;DHT22;36669;51.428;21.162;2023-11-19T01:38:45;0.30;99.90
44886;DHT22;36669;51.428;21.162;2023-11-19T01:41:11;0.30;99.90
44886;DHT22;36669;51.428;21.162;2023-11-19T01:43:40;0.30;99.90
44886;DHT22;36669;51.428;21.162;2023-11-19T01:46:13;0.30;99.90
44886;DHT22;36669;51.428;21.162;2023-11-19T01:48:43;0.20;99.90
44886;DHT22;36669;51.428;21.162;2023-11-19T01:51:12;0.20;99.90
44886;DHT22;36669;51.428;21.162;2023-11-19T01:53:43;0.30;99.90
44886;DHT22;36669;51.428;21.162;2023-11-19T01:56:16;0.30;99.90
44886;DHT22;36669;51.428;21.162;2023-11-19T01:58:44;0.30;99.90
44886;DHT22;36669;51.428;21.162;2023-11-19T02:01:13;0.30;99.90
44886;DHT22;36669;51.428;21.162;2023-11-19T02:03:40;0.30;99.90
44886;DHT22;36669;51.428;21.162;2023-11-19T02:06:08;0.30;99.90
44886;DHT22;36669;51.428;21.162;2023-11-19T02:08:39;0.30;99.90
44886;DHT22;36669;51.428;21.162;2023-11-19T02:11:05;0.30;99.90
44886;DHT22;36669;51.428;21.162;2023-11-19T02:13:36;0.20;99.90
44886;DHT22;36669;51.428;21.162;2023-11-19T02:16:07;0.30;99.90
44886;DHT22;36669;51.428;21.162;2023-11-19T02:18:34;0.30;99.90
44886;DHT22;36669;51.428;21.162;2023-11-19T02:21:00;0.20;99.90
44886;DHT22;36669;51.428;21.162;2023-11-19T02:23:27;0.20;99.90
44886;DHT22;36669;51.428;21.162;2023-11-19T02:26:25;0.30;99.90
44886;DHT22;36669;51.428;21.162;2023-11-19T02:28:55;0.30;99.90
44886;DHT22;36669;51.428;21.162;2023-11-19T02:31:22;0.30;99.90
44886;DHT22;36669;51.428;21.162;2023-11-19T02:33:51;0.30;99.90
44886;DHT22;36669;51.428;21.162;2023-11-19T02:36:18;0.30;99.90
44886;DHT22;36669;51.428;21.162;2023-11-19T02:38:43;0.30;99.90
44886;DHT22;36669;51.428;21.162;2023-11-19T02:41:13;0.30;99.90
44886;DHT22;36669;51.428;21.162;2023-11-19T02:43:39;0.30;99.90
44886;DHT22;36669;51.428;21.162;2023-11-19T02:46:06;0.20;99.90
44886;DHT22;36669;51.428;21.162;2023-11-19T02:48:35;0.30;99.90
44886;DHT22;36669;51.428;21.162;2023-11-19T02:51:01;0.30;99.90
44886;DHT22;36669;51.428;21.162;2023-11-19T02:53:32;0.30;99.90
44886;DHT22;36669;51.428;21.162;2023-11-19T02:55:57;0.30;99.90
44886;DHT22;36669;51.428;21.162;2023-11-19T02:58:35;0.30;99.90
44886;DHT22;36669;51.428;21.162;2023-11-19T03:01:02;0.30;99.90
44886;DHT22;36669;51.428;21.162;2023-11-19T03:03:39;0.30;99.90
44886;DHT22;36669;51.428;21.162;2023-11-19T03:06:08;0.30;99.90
44886;DHT22;36669;51.428;21.162;2023-11-19T03:08:35;0.30;99.90
44886;DHT22;36669;51.428;21.162;2023-11-19T03:11:03;0.30;99.90
44886;DHT22;36669;51.428;21.162;2023-11-19T03:13:30;0.30;99.90
44886;DHT22;36669;51.428;21.162;2023-11-19T03:16:00;0.30;99.90
44886;DHT22;36669;51.428;21.162;2023-11-19T03:18:27;0.30;99.90
44886;DHT22;36669;51.428;21.162;2023-11-19T03:20:54;0.30;99.90
44886;DHT22;36669;51.428;21.162;2023-11-19T03:23:20;0.30;99.90
44886;DHT22;36669;51.428;21.162;2023-11-19T03:25:48;0.30;99.90
44886;DHT22;36669;51.428;21.162;2023-11-19T03:28:15;0.30;99.90
44886;DHT22;36669;51.428;21.162;2023-11-19T03:30:42;0.30;99.90
44886;DHT22;36669;51.428;21.162;2023-11-19T03:33:09;0.40;99.90
44886;DHT22;36669;51.428;21.162;2023-11-19T03:35:36;0.40;99.90
44886;DHT22;36669;51.428;21.162;2023-11-19T03:38:03;0.40;99.90
44886;DHT22;36669;51.428;21.162;2023-11-19T03:40:30;0.40;99.90
44886;DHT22;36669;51.428;21.162;2023-11-19T03:42:57;0.40;99.90
44886;DHT22;36669;51.428;21.162;2023-11-19T03:45:27;0.40;99.90
44886;DHT22;36669;51.428;21.162;2023-11-19T03:48:11;0.30;99.90
44886;DHT22;36669;51.428;21.162;2023-11-19T03:50:37;0.30;99.90
44886;DHT22;36669;51.428;21.162;2023-11-19T03:53:04;0.40;99.90
44886;DHT22;36669;51.428;21.162;2023-11-19T03:55:30;0.40;99.90
44886;DHT22;36669;51.428;21.162;2023-11-19T03:58:07;0.40;99.90
44886;DHT22;36669;51.428;21.162;2023-11-19T04:00:33;0.40;99.90
44886;DHT22;36669;51.428;21.162;2023-11-19T04:03:00;0.40;99.90
44886;DHT22;36669;51.428;21.162;2023-11-19T04:05:27;0.40;99.90
44886;DHT22;36669;51.428;21.162;2023-11-19T04:07:55;0.40;99.90
44886;DHT22;36669;51.428;21.162;2023-11-19T04:10:23;0.40;99.90
44886;DHT22;36669;51.428;21.162;2023-11-19T04:12:50;0.40;99.90
44886;DHT22;36669;51.428;21.162;2023-11-19T04:15:18;0.40;99.90
44886;DHT22;36669;51.428;21.162;2023-11-19T04:17:43;0.40;99.90
44886;DHT22;36669;51.428;21.162;2023-11-19T04:20:13;0.40;99.90
44886;DHT22;36669;51.428;21.162;2023-11-19T04:22:39;0.50;99.90
44886;DHT22;36669;51.428;21.162;2023-11-19T04:25:05;0.50;99.90
44886;DHT22;36669;51.428;21.162;2023-11-19T04:27:31;0.50;99.90
44886;DHT22;36669;51.428;21.162;2023-11-19T04:29:58;0.50;99.90
44886;DHT22;36669;51.428;21.162;2023-11-19T04:32:26;0.50;99.90
44886;DHT22;36669;51.428;21.162;2023-11-19T04:34:53;0.50;99.90
44886;DHT22;36669;51.428;21.162;2023-11-19T04:37:20;0.50;99.90
44886;DHT22;36669;51.428;21.162;2023-11-19T04:39:47;0.50;99.90
44886;DHT22;36669;51.428;21.162;2023-11-19T04:42:12;0.50;99.90
44886;DHT22;36669;51.428;21.162;2023-11-19T04:44:38;0.50;99.90
44886;DHT22;36669;51.428;21.162;2023-11-19T04:47:06;0.50;99.90
44886;DHT22;36669;51.428;21.162;2023-11-19T04:49:32;0.50;99.90
44886;DHT22;36669;51.428;21.162;2023-11-19T04:52:01;0.50;99.90
44886;DHT22;36669;51.428;21.162;2023-11-19T04:54:30;0.50;99.90
44886;DHT22;36669;51.428;21.162;2023-11-19T04:56:55;0.50;99.90
44886;DHT22;36669;51.428;21.162;2023-11-19T04:59:22;0.50;99.90
44886;DHT22;36669;51.428;21.162;2023-11-19T05:01:49;0.50;99.90
44886;DHT22;36669;51.428;21.162;2023-11-19T05:04:14;0.50;99.90
44886;DHT22;36669;51.428;21.162;2023-11-19T05:06:42;0.60;99.90
44886;DHT22;36669;51.428;21.162;2023-11-19T05:09:08;0.60;99.90
44886;DHT22;36669;51.428;21.162;2023-11-19T05:11:35;0.60;99.90
44886;DHT22;36669;51.428;21.162;2023-11-19T05:14:03;0.60;99.90
44886;DHT22;36669;51.428;21.162;2023-11-19T05:16:34;0.60;99.90
44886;DHT22;36669;51.428;21.162;2023-11-19T05:19:03;0.60;99.90
44886;DHT22;36669;51.428;21.162;2023-11-19T05:21:32;0.60;99.90
44886;DHT22;36669;51.428;21.162;2023-11-19T05:24:00;0.60;99.90
44886;DHT22;36669;51.428;21.162;2023-11-19T05:26:28;0.60;99.90
44886;DHT22;36669;51.428;21.162;2023-11-19T05:28:56;0.60;99.90
44886;DHT22;36669;51.428;21.162;2023-11-19T05:31:22;0.60;99.90
44886;DHT22;36669;51.428;21.162;2023-11-19T05:33:50;0.60;99.90
44886;DHT22;36669;51.428;21.162;2023-11-19T05:36:17;0.60;99.90
44886;DHT22;36669;51.428;21.162;2023-11-19T05:38:43;0.60;99.90
44886;DHT22;36669;51.428;21.162;2023-11-19T05:41:11;0.60;99.90
44886;DHT22;36669;51.428;21.162;2023-11-19T05:43:36;0.60;99.90
44886;DHT22;36669;51.428;21.162;2023-11-19T05:46:04;0.60;99.90
44886;DHT22;36669;51.428;21.162;2023-11-19T05:48:30;0.60;99.90
44886;DHT22;36669;51.428;21.162;2023-11-19T05:50:57;0.60;99.90
44886;DHT22;36669;51.428;21.162;2023-11-19T05:53:24;0.60;99.90
44886;DHT22;36669;51.428;21.162;2023-11-19T05:55:51;0.60;99.90
44886;DHT22;36669;51.428;21.162;2023-11-19T05:58:25;0.60;99.90
44886;DHT22;36669;51.428;21.162;2023-11-19T06:00:54;0.70;99.90
44886;DHT22;36669;51.428;21.162;2023-11-19T06:03:22;0.70;99.90
44886;DHT22;36669;51.428;21.162;2023-11-19T06:05:51;0.70;99.90
44886;DHT22;36669;51.428;21.162;2023-11-19T06:08:19;0.70;99.90
44886;DHT22;36669;51.428;21.162;2023-11-19T06:10:46;0.70;99.90
44886;DHT22;36669;51.428;21.162;2023-11-19T06:13:15;0.70;99.90
44886;DHT22;36669;51.428;21.162;2023-11-19T06:15:42;0.70;99.90
44886;DHT22;36669;51.428;21.162;2023-11-19T06:18:09;0.70;99.90
44886;DHT22;36669;51.428;21.162;2023-11-19T06:20:38;0.80;99.90
44886;DHT22;36669;51.428;21.162;2023-11-19T06:23:05;0.80;99.90
44886;DHT22;36669;51.428;21.162;2023-11-19T06:25:33;0.80;99.90
44886;DHT22;36669;51.428;21.162;2023-11-19T06:28:01;0.80;99.90
44886;DHT22;36669;51.428;21.162;2023-11-19T06:30:28;0.80;99.90
44886;DHT22;36669;51.428;21.162;2023-11-19T06:32:56;0.80;99.90
44886;DHT22;36669;51.428;21.162;2023-11-19T06:35:23;0.70;99.90
44886;DHT22;36669;51.428;21.162;2023-11-19T06:37:50;0.70;99.90
44886;DHT22;36669;51.428;21.162;2023-11-19T06:40:16;0.70;99.90
44886;DHT22;36669;51.428;21.162;2023-11-19T06:42:43;0.70;99.90
44886;DHT22;36669;51.428;21.162;2023-11-19T06:45:10;0.70;99.90
44886;DHT22;36669;51.428;21.162;2023-11-19T06:47:36;0.70;99.90
44886;DHT22;36669;51.428;21.162;2023-11-19T06:50:02;0.70;99.90
44886;DHT22;36669;51.428;21.162;2023-11-19T06:52:33;0.70;99.90
44886;DHT22;36669;51.428;21.162;2023-11-19T06:55:00;0.70;99.90
44886;DHT22;36669;51.428;21.162;2023-11-19T06:57:27;0.70;99.90
44886;DHT22;36669;51.428;21.162;2023-11-19T06:59:57;0.80;99.90
44886;DHT22;36669;51.428;21.162;2023-11-19T07:02:24;0.70;99.90
44886;DHT22;36669;51.428;21.162;2023-11-19T07:04:51;0.80;99.90
44886;DHT22;36669;51.428;21.162;2023-11-19T07:07:19;0.80;99.90
44886;DHT22;36669;51.428;21.162;2023-11-19T07:09:48;0.80;99.90
44886;DHT22;36669;51.428;21.162;2023-11-19T07:12:15;0.80;99.90
44886;DHT22;36669;51.428;21.162;2023-11-19T07:14:43;0.80;99.90
44886;DHT22;36669;51.428;21.162;2023-11-19T07:17:10;0.80;99.90
44886;DHT22;36669;51.428;21.162;2023-11-19T07:19:38;0.80;99.90
44886;DHT22;36669;51.428;21.162;2023-11-19T07:22:06;0.90;99.90
44886;DHT22;36669;51.428;21.162;2023-11-19T07:24:34;0.90;99.90
44886;DHT22;36669;51.428;21.162;2023-11-19T07:27:02;0.90;99.90
44886;DHT22;36669;51.428;21.162;2023-11-19T07:29:31;0.90;99.90
44886;DHT22;36669;51.428;21.162;2023-11-19T07:31:58;0.90;99.90
44886;DHT22;36669;51.428;21.162;2023-11-19T07:34:26;0.90;99.90
44886;DHT22;36669;51.428;21.162;2023-11-19T07:36:53;1.00;99.90
44886;DHT22;36669;51.428;21.162;2023-11-19T07:39:21;1.00;99.90
44886;DHT22;36669;51.428;21.162;2023-11-19T07:41:49;1.00;99.90
44886;DHT22;36669;51.428;21.162;2023-11-19T07:44:17;1.00;99.90
44886;DHT22;36669;51.428;21.162;2023-11-19T07:46:42;1.00;99.90
44886;DHT22;36669;51.428;21.162;2023-11-19T07:49:10;1.00;99.90
44886;DHT22;36669;51.428;21.162;2023-11-19T07:51:37;1.00;99.90
44886;DHT22;36669;51.428;21.162;2023-11-19T07:54:04;1.00;99.90
44886;DHT22;36669;51.428;21.162;2023-11-19T07:56:34;1.00;99.90
44886;DHT22;36669;51.428;21.162;2023-11-19T07:59:04;1.00;99.90
44886;DHT22;36669;51.428;21.162;2023-11-19T08:01:31;0.90;99.90
44886;DHT22;36669;51.428;21.162;2023-11-19T08:03:56;1.00;99.90
44886;DHT22;36669;51.428;21.162;2023-11-19T08:06:28;0.90;99.90
44886;DHT22;36669;51.428;21.162;2023-11-19T08:08:56;1.00;99.90
44886;DHT22;36669;51.428;21.162;2023-11-19T08:11:22;1.00;99.90
44886;DHT22;36669;51.428;21.162;2023-11-19T08:13:47;1.00;99.90
44886;DHT22;36669;51.428;21.162;2023-11-19T08:16:14;1.10;99.90
44886;DHT22;36669;51.428;21.162;2023-11-19T08:18:42;1.10;99.90
44886;DHT22;36669;51.428;21.162;2023-11-19T08:21:10;1.10;99.90
44886;DHT22;36669;51.428;21.162;2023-11-19T08:23:37;1.10;99.90
44886;DHT22;36669;51.428;21.162;2023-11-19T08:26:05;1.10;99.90
44886;DHT22;36669;51.428;21.162;2023-11-19T08:28:32;1.10;99.90
44886;DHT22;36669;51.428;21.162;2023-11-19T08:31:00;1.10;99.90
44886;DHT22;36669;51.428;21.162;2023-11-19T08:33:41;1.10;99.90
44886;DHT22;36669;51.428;21.162;2023-11-19T08:36:08;1.20;99.90
44886;DHT22;36669;51.428;21.162;2023-11-19T08:38:35;1.20;99.90
44886;DHT22;36669;51.428;21.162;2023-11-19T08:41:02;1.10;99.90
44886;DHT22;36669;51.428;21.162;2023-11-19T08:43:27;1.20;99.90
44886;DHT22;36669;51.428;21.162;2023-11-19T08:45:55;1.10;99.90
44886;DHT22;36669;51.428;21.162;2023-11-19T08:48:22;1.20;99.90
44886;DHT22;36669;51.428;21.162;2023-11-19T08:50:49;1.10;99.90
44886;DHT22;36669;51.428;21.162;2023-11-19T08:53:16;1.20;99.90
44886;DHT22;36669;51.428;21.162;2023-11-19T08:55:44;1.20;99.90
44886;DHT22;36669;51.428;21.162;2023-11-19T08:58:12;1.20;99.90
44886;DHT22;36669;51.428;21.162;2023-11-19T09:00:40;1.20;99.90
44886;DHT22;36669;51.428;21.162;2023-11-19T09:03:08;1.20;99.90
44886;DHT22;36669;51.428;21.162;2023-11-19T09:05:36;1.30;99.90
44886;DHT22;36669;51.428;21.162;2023-11-19T09:08:04;1.30;99.90
44886;DHT22;36669;51.428;21.162;2023-11-19T09:10:34;1.30;99.90
44886;DHT22;36669;51.428;21.162;2023-11-19T09:13:02;1.40;99.90
44886;DHT22;36669;51.428;21.162;2023-11-19T09:15:29;1.40;99.90
44886;DHT22;36669;51.428;21.162;2023-11-19T09:17:56;1.40;99.90
44886;DHT22;36669;51.428;21.162;2023-11-19T09:20:22;1.40;99.90
44886;DHT22;36669;51.428;21.162;2023-11-19T09:22:50;1.40;99.90
44886;DHT22;36669;51.428;21.162;2023-11-19T09:25:17;1.40;99.90
44886;DHT22;36669;51.428;21.162;2023-11-19T09:27:44;1.40;99.90
44886;DHT22;36669;51.428;21.162;2023-11-19T09:30:11;1.40;99.90
44886;DHT22;36669;51.428;21.162;2023-11-19T09:32:38;1.40;99.90
44886;DHT22;36669;51.428;21.162;2023-11-19T09:35:04;1.50;99.90
44886;DHT22;36669;51.428;21.162;2023-11-19T09:37:30;1.50;99.90
44886;DHT22;36669;51.428;21.162;2023-11-19T09:40:00;1.50;99.90
44886;DHT22;36669;51.428;21.162;2023-11-19T09:42:27;1.50;99.90
44886;DHT22;36669;51.428;21.162;2023-11-19T09:45:14;1.60;99.90
44886;DHT22;36669;51.428;21.162;2023-11-19T09:48:02;1.60;99.90
44886;DHT22;36669;51.428;21.162;2023-11-19T09:50:28;1.60;99.90
44886;DHT22;36669;51.428;21.162;2023-11-19T09:52:55;1.60;99.90
44886;DHT22;36669;51.428;21.162;2023-11-19T09:55:22;1.50;99.90
44886;DHT22;36669;51.428;21.162;2023-11-19T09:57:49;1.50;99.90
44886;DHT22;36669;51.428;21.162;2023-11-19T10:00:20;1.50;99.90
44886;DHT22;36669;51.428;21.162;2023-11-19T10:02:47;1.50;99.90
44886;DHT22;36669;51.428;21.162;2023-11-19T10:05:14;1.60;99.90
44886;DHT22;36669;51.428;21.162;2023-11-19T10:07:41;1.60;99.90
44886;DHT22;36669;51.428;21.162;2023-11-19T10:10:09;1.60;99.90
44886;DHT22;36669;51.428;21.162;2023-11-19T10:12:40;1.70;99.90
44886;DHT22;36669;51.428;21.162;2023-11-19T10:15:24;1.70;99.90
44886;DHT22;36669;51.428;21.162;2023-11-19T10:18:01;1.70;99.90
44886;DHT22;36669;51.428;21.162;2023-11-19T10:20:41;1.80;99.90
44886;DHT22;36669;51.428;21.162;2023-11-19T10:23:08;1.80;99.90
44886;DHT22;36669;51.428;21.162;2023-11-19T10:25:37;1.90;99.90
44886;DHT22;36669;51.428;21.162;2023-11-19T10:28:04;1.90;99.90
44886;DHT22;36669;51.428;21.162;2023-11-19T10:30:31;2.00;99.90
44886;DHT22;36669;51.428;21.162;2023-11-19T10:33:13;2.00;99.90
44886;DHT22;36669;51.428;21.162;2023-11-19T10:35:56;2.10;99.90
44886;DHT22;36669;51.428;21.162;2023-11-19T10:38:29;2.10;99.90
44886;DHT22;36669;51.428;21.162;2023-11-19T10:40:57;2.00;99.90
44886;DHT22;36669;51.428;21.162;2023-11-19T10:43:25;2.10;99.90
44886;DHT22;36669;51.428;21.162;2023-11-19T10:45:55;2.10;99.90
44886;DHT22;36669;51.428;21.162;2023-11-19T10:48:35;2.10;99.90
44886;DHT22;36669;51.428;21.162;2023-11-19T10:51:05;2.10;99.90
44886;DHT22;36669;51.428;21.162;2023-11-19T10:53:41;2.00;99.90
44886;DHT22;36669;51.428;21.162;2023-11-19T10:56:13;1.90;99.90
44886;DHT22;36669;51.428;21.162;2023-11-19T10:58:47;1.90;99.90
44886;DHT22;36669;51.428;21.162;2023-11-19T11:01:21;1.80;99.90
44886;DHT22;36669;51.428;21.162;2023-11-19T11:03:49;1.90;99.90
44886;DHT22;36669;51.428;21.162;2023-11-19T11:06:17;1.90;99.90
44886;DHT22;36669;51.428;21.162;2023-11-19T11:08:57;1.90;99.90
44886;DHT22;36669;51.428;21.162;2023-11-19T11:11:24;1.80;99.90
44886;DHT22;36669;51.428;21.162;2023-11-19T11:13:55;1.80;99.90
44886;DHT22;36669;51.428;21.162;2023-11-19T11:16:25;1.90;99.90
44886;DHT22;36669;51.428;21.162;2023-11-19T11:18:52;1.80;99.90
44886;DHT22;36669;51.428;21.162;2023-11-19T11:21:24;1.80;99.90
44886;DHT22;36669;51.428;21.162;2023-11-19T11:30:10;2.00;99.90
44886;DHT22;36669;51.428;21.162;2023-11-19T11:35:33;2.00;99.90
44886;DHT22;36669;51.428;21.162;2023-11-19T11:38:08;2.00;99.90
44886;DHT22;36669;51.428;21.162;2023-11-19T11:40:35;2.00;99.90
44886;DHT22;36669;51.428;21.162;2023-11-19T11:43:05;2.00;99.90
44886;DHT22;36669;51.428;21.162;2023-11-19T11:45:53;2.00;99.90
44886;DHT22;36669;51.428;21.162;2023-11-19T11:48:23;2.10;99.90
44886;DHT22;36669;51.428;21.162;2023-11-19T11:50:57;2.00;99.90
44886;DHT22;36669;51.428;21.162;2023-11-19T11:53:25;2.00;99.90
44886;DHT22;36669;51.428;21.162;2023-11-19T11:58:22;2.10;99.90
44886;DHT22;36669;51.428;21.162;2023-11-19T12:00:52;2.00;99.90
44886;DHT22;36669;51.428;21.162;2023-11-19T12:03:21;1.90;99.90
44886;DHT22;36669;51.428;21.162;2023-11-19T12:05:48;1.90;99.90
44886;DHT22;36669;51.428;21.162;2023-11-19T12:08:19;1.90;99.90
44886;DHT22;36669;51.428;21.162;2023-11-19T12:10:51;1.90;99.90
44886;DHT22;36669;51.428;21.162;2023-11-19T12:13:19;1.90;99.90
44886;DHT22;36669;51.428;21.162;2023-11-19T12:16:07;2.00;99.90
44886;DHT22;36669;51.428;21.162;2023-11-19T12:18:34;2.00;99.90
44886;DHT22;36669;51.428;21.162;2023-11-19T12:21:02;2.00;99.90
44886;DHT22;36669;51.428;21.162;2023-11-19T12:23:31;2.00;99.90
44886;DHT22;36669;51.428;21.162;2023-11-19T12:25:59;2.00;99.90
44886;DHT22;36669;51.428;21.162;2023-11-19T12:28:24;2.00;99.90
44886;DHT22;36669;51.428;21.162;2023-11-19T12:30:54;2.00;99.90
44886;DHT22;36669;51.428;21.162;2023-11-19T12:33:36;2.00;99.90
44886;DHT22;36669;51.428;21.162;2023-11-19T12:36:05;2.00;99.90
44886;DHT22;36669;51.428;21.162;2023-11-19T12:38:31;2.00;99.90
44886;DHT22;36669;51.428;21.162;2023-11-19T12:41:09;2.00;99.90
44886;DHT22;36669;51.428;21.162;2023-11-19T12:43:44;2.00;99.90
44886;DHT22;36669;51.428;21.162;2023-11-19T12:46:22;2.00;99.90
44886;DHT22;36669;51.428;21.162;2023-11-19T12:48:49;1.90;99.90
44886;DHT22;36669;51.428;21.162;2023-11-19T12:51:17;2.00;99.90
44886;DHT22;36669;51.428;21.162;2023-11-19T12:53:54;2.00;99.90
44886;DHT22;36669;51.428;21.162;2023-11-19T12:56:21;2.10;99.90
44886;DHT22;36669;51.428;21.162;2023-11-19T12:58:48;2.10;99.90
44886;DHT22;36669;51.428;21.162;2023-11-19T13:01:18;2.00;99.90
44886;DHT22;36669;51.428;21.162;2023-11-19T13:03:46;2.00;99.90
44886;DHT22;36669;51.428;21.162;2023-11-19T13:06:15;2.00;99.90
44886;DHT22;36669;51.428;21.162;2023-11-19T13:08:50;2.00;99.90
44886;DHT22;36669;51.428;21.162;2023-11-19T13:11:35;1.90;99.90
44886;DHT22;36669;51.428;21.162;2023-11-19T13:14:06;1.90;99.90
44886;DHT22;36669;51.428;21.162;2023-11-19T13:16:52;1.90;99.90
44886;DHT22;36669;51.428;21.162;2023-11-19T13:19:19;1.90;99.90
44886;DHT22;36669;51.428;21.162;2023-11-19T13:21:45;1.90;99.90
44886;DHT22;36669;51.428;21.162;2023-11-19T13:24:16;1.90;99.90
44886;DHT22;36669;51.428;21.162;2023-11-19T13:26:42;1.90;99.90
44886;DHT22;36669;51.428;21.162;2023-11-19T13:29:09;1.90;99.90
44886;DHT22;36669;51.428;21.162;2023-11-19T13:31:38;2.00;99.90
44886;DHT22;36669;51.428;21.162;2023-11-19T13:34:05;1.90;99.90
44886;DHT22;36669;51.428;21.162;2023-11-19T13:36:33;1.90;99.90
44886;DHT22;36669;51.428;21.162;2023-11-19T13:39:01;1.90;99.90
44886;DHT22;36669;51.428;21.162;2023-11-19T13:41:28;1.90;99.90
44886;DHT22;36669;51.428;21.162;2023-11-19T13:43:56;1.90;99.90
44886;DHT22;36669;51.428;21.162;2023-11-19T13:46:23;1.90;99.90
44886;DHT22;36669;51.428;21.162;2023-11-19T13:48:51;1.90;99.90
44886;DHT22;36669;51.428;21.162;2023-11-19T13:51:19;1.90;99.90
44886;DHT22;36669;51.428;21.162;2023-11-19T13:53:46;1.90;99.90
44886;DHT22;36669;51.428;21.162;2023-11-19T13:56:13;1.90;99.90
44886;DHT22;36669;51.428;21.162;2023-11-19T13:58:40;1.90;99.90
44886;DHT22;36669;51.428;21.162;2023-11-19T14:01:08;1.90;99.90
44886;DHT22;36669;51.428;21.162;2023-11-19T14:03:33;1.80;99.90
44886;DHT22;36669;51.428;21.162;2023-11-19T14:06:00;1.70;99.90
44886;DHT22;36669;51.428;21.162;2023-11-19T14:08:29;1.70;99.90
44886;DHT22;36669;51.428;21.162;2023-11-19T14:10:57;1.60;99.90
44886;DHT22;36669;51.428;21.162;2023-11-19T14:13:25;1.60;99.90
44886;DHT22;36669;51.428;21.162;2023-11-19T14:15:52;1.50;99.90
44886;DHT22;36669;51.428;21.162;2023-11-19T14:18:19;1.50;99.90
44886;DHT22;36669;51.428;21.162;2023-11-19T14:20:45;1.60;99.90
44886;DHT22;36669;51.428;21.162;2023-11-19T14:23:13;1.50;99.90
44886;DHT22;36669;51.428;21.162;2023-11-19T14:25:41;1.50;99.90
44886;DHT22;36669;51.428;21.162;2023-11-19T14:28:08;1.50;99.90
44886;DHT22;36669;51.428;21.162;2023-11-19T14:30:35;1.50;99.90
44886;DHT22;36669;51.428;21.162;2023-11-19T14:33:02;1.40;99.90
44886;DHT22;36669;51.428;21.162;2023-11-19T14:35:28;1.30;99.90
44886;DHT22;36669;51.428;21.162;2023-11-19T14:37:57;1.30;99.90
44886;DHT22;36669;51.428;21.162;2023-11-19T14:40:24;1.20;99.90
44886;DHT22;36669;51.428;21.162;2023-11-19T14:42:50;1.20;99.90
44886;DHT22;36669;51.428;21.162;2023-11-19T14:45:17;1.20;99.90
44886;DHT22;36669;51.428;21.162;2023-11-19T14:47:44;1.10;99.90
44886;DHT22;36669;51.428;21.162;2023-11-19T14:50:13;1.10;99.90
44886;DHT22;36669;51.428;21.162;2023-11-19T14:52:40;1.00;99.90
44886;DHT22;36669;51.428;21.162;2023-11-19T14:55:09;1.00;99.90
44886;DHT22;36669;51.428;21.162;2023-11-19T14:57:36;1.00;99.90
44886;DHT22;36669;51.428;21.162;2023-11-19T15:00:06;0.90;99.90
44886;DHT22;36669;51.428;21.162;2023-11-19T15:02:40;0.90;99.90
44886;DHT22;36669;51.428;21.162;2023-11-19T15:05:08;0.90;99.90
44886;DHT22;36669;51.428;21.162;2023-11-19T15:07:37;0.90;99.90
44886;DHT22;36669;51.428;21.162;2023-11-19T15:10:05;0.90;99.90
44886;DHT22;36669;51.428;21.162;2023-11-19T15:12:39;0.90;99.90
44886;DHT22;36669;51.428;21.162;2023-11-19T15:15:10;0.90;99.90
44886;DHT22;36669;51.428;21.162;2023-11-19T15:17:45;0.90;99.90
44886;DHT22;36669;51.428;21.162;2023-11-19T15:20:14;0.90;99.90
44886;DHT22;36669;51.428;21.162;2023-11-19T15:22:45;0.90;99.90
44886;DHT22;36669;51.428;21.162;2023-11-19T15:25:13;0.90;99.90
44886;DHT22;36669;51.428;21.162;2023-11-19T15:27:41;0.90;99.90
44886;DHT22;36669;51.428;21.162;2023-11-19T15:30:10;0.90;99.90
44886;DHT22;36669;51.428;21.162;2023-11-19T15:32:41;0.90;99.90
44886;DHT22;36669;51.428;21.162;2023-11-19T15:35:12;0.80;99.90
44886;DHT22;36669;51.428;21.162;2023-11-19T15:37:43;0.80;99.90
44886;DHT22;36669;51.428;21.162;2023-11-19T15:40:10;0.80;99.90
44886;DHT22;36669;51.428;21.162;2023-11-19T15:42:41;0.90;99.90
44886;DHT22;36669;51.428;21.162;2023-11-19T15:45:08;0.90;99.90
44886;DHT22;36669;51.428;21.162;2023-11-19T15:47:37;0.90;99.90
44886;DHT22;36669;51.428;21.162;2023-11-19T15:50:03;0.90;99.90